| time (UTC) | temp F | wind direction | speed knots | gust knots | rain 1hr in | rain 24hr in | rain mn in | humidity % | barometer mb |
| 20260504224549 | 68 | 238 | 1.7 | 6.1 | 0.00 | 0.00 | 0.00 | 37 | 1007.1 |
| 20260504224043 | 68 | 259 | 2.6 | 5.2 | 0.00 | 0.00 | 0.00 | 36 | 1007.0 |
| 20260504223543 | 69 | 253 | 0.9 | 5.2 | 0.00 | 0.00 | 0.00 | 37 | 1007.0 |
| 20260504223049 | 69 | 250 | 1.7 | 6.1 | 0.00 | 0.00 | 0.00 | 36 | 1006.9 |
| 20260504222543 | 69 | 254 | 2.6 | 7.8 | 0.00 | 0.00 | 0.00 | 35 | 1006.9 |
| 20260504222042 | 69 | 273 | 3.5 | 7.8 | 0.00 | 0.00 | 0.00 | 36 | 1006.7 |
| 20260504221547 | 69 | 234 | 2.6 | 7.0 | 0.00 | 0.00 | 0.00 | 36 | 1006.7 |
| 20260504221042 | 69 | 248 | 2.6 | 6.1 | 0.00 | 0.00 | 0.00 | 36 | 1006.8 |
| 20260504220542 | 69 | 248 | 2.6 | 7.0 | 0.00 | 0.00 | 0.00 | 35 | 1006.8 |
| 20260504220052 | 69 | 251 | 2.6 | 7.0 | 0.00 | 0.00 | 0.00 | 36 | 1006.9 |
| 20260504215543 | 69 | 269 | 2.6 | 6.1 | 0.00 | 0.00 | 0.00 | 36 | 1006.9 |
| 20260504215041 | 69 | 240 | 1.7 | 8.7 | 0.00 | 0.00 | 0.00 | 36 | 1007.0 |
| 20260504214555 | 70 | 243 | 3.5 | 8.7 | 0.00 | 0.00 | 0.00 | 35 | 1007.0 |
| 20260504214045 | 70 | 263 | 4.3 | 8.7 | 0.00 | 0.00 | 0.00 | 34 | 1007.0 |
| 20260504213545 | 70 | 248 | 4.3 | 8.7 | 0.00 | 0.00 | 0.00 | 34 | 1007.0 |
| 20260504213051 | 70 | 281 | 0.9 | 7.0 | 0.00 | 0.00 | 0.00 | 34 | 1006.9 |
| 20260504212543 | 70 | 0 | 1.7 | 8.7 | 0.00 | 0.00 | 0.00 | 36 | 1007.0 |
| 20260504212045 | 70 | 240 | 4.3 | 8.7 | 0.00 | 0.00 | 0.00 | 33 | 1007.1 |
| 20260504211552 | 71 | 248 | 4.3 | 7.8 | 0.00 | 0.00 | 0.00 | 33 | 1006.9 |
| 20260504211044 | 71 | 248 | 3.5 | 7.0 | 0.00 | 0.00 | 0.00 | 34 | 1006.8 |
| 20260504210545 | 70 | 256 | 2.6 | 7.8 | 0.00 | 0.00 | 0.00 | 34 | 1006.8 |
| 20260504210105 | 70 | 258 | 4.3 | 7.8 | 0.00 | 0.00 | 0.00 | 34 | 1006.8 |
| 20260504205541 | 70 | 244 | 4.3 | 8.7 | 0.00 | 0.00 | 0.00 | 34 | 1006.8 |
| 20260504205042 | 70 | 243 | 4.3 | 8.7 | 0.00 | 0.00 | 0.00 | 33 | 1006.8 |
| 20260504204559 | 71 | 234 | 3.5 | 9.6 | 0.00 | 0.00 | 0.00 | 33 | 1007.0 |
| 20260504204043 | 71 | 254 | 5.2 | 9.6 | 0.00 | 0.00 | 0.00 | 32 | 1006.8 |
| 20260504203542 | 72 | 205 | 3.5 | 8.7 | 0.00 | 0.00 | 0.00 | 32 | 1006.8 |
| 20260504203104 | 72 | 260 | 1.7 | 8.7 | 0.00 | 0.00 | 0.00 | 32 | 1006.8 |
| 20260504202542 | 72 | 229 | 1.7 | 5.2 | 0.00 | 0.00 | 0.00 | 31 | 1006.7 |
| 20260504202042 | 72 | 286 | 0.9 | 10.4 | 0.00 | 0.00 | 0.00 | 33 | 1006.7 |
| 20260504201546 | 72 | 289 | 2.6 | 10.4 | 0.00 | 0.00 | 0.00 | 33 | 1006.8 |
| 20260504201043 | 72 | 241 | 6.1 | 10.4 | 0.00 | 0.00 | 0.00 | 32 | 1007.0 |
| 20260504200542 | 72 | 257 | 2.6 | 9.6 | 0.00 | 0.00 | 0.00 | 31 | 1007.0 |
| 20260504200051 | 72 | 269 | 3.5 | 9.6 | 0.00 | 0.00 | 0.00 | 31 | 1006.9 |
| 20260504195541 | 73 | 245 | 3.5 | 7.0 | 0.00 | 0.00 | 0.00 | 33 | 1006.8 |
| 20260504195042 | 73 | 273 | 2.6 | 7.8 | 0.00 | 0.00 | 0.00 | 32 | 1006.9 |
| 20260504194555 | 73 | 269 | 2.6 | 9.6 | 0.00 | 0.00 | 0.00 | 31 | 1007.0 |
| 20260504194042 | 73 | 248 | 3.5 | 9.6 | 0.00 | 0.00 | 0.00 | 32 | 1007.1 |
| 20260504193543 | 73 | 250 | 4.3 | 8.7 | 0.00 | 0.00 | 0.00 | 30 | 1006.8 |
| 20260504193051 | 73 | 269 | 2.6 | 9.6 | 0.00 | 0.00 | 0.00 | 31 | 1007.0 |
| 20260504192545 | 73 | 277 | 2.6 | 9.6 | 0.00 | 0.00 | 0.00 | 30 | 1006.9 |
| 20260504192043 | 73 | 259 | 4.3 | 9.6 | 0.00 | 0.00 | 0.00 | 30 | 1007.0 |
| 20260504191552 | 73 | 224 | 2.6 | 7.8 | 0.00 | 0.00 | 0.00 | 31 | 1006.8 |
| 20260504191042 | 72 | 207 | 3.5 | 7.8 | 0.00 | 0.00 | 0.00 | 32 | 1007.0 |
| 20260504190543 | 73 | 312 | 3.5 | 8.7 | 0.00 | 0.00 | 0.00 | 31 | 1007.0 |
| 20260504190107 | 72 | 239 | 4.3 | 8.7 | 0.00 | 0.00 | 0.00 | 31 | 1007.0 |
| 20260504185541 | 72 | 236 | 3.5 | 8.7 | 0.00 | 0.00 | 0.00 | 32 | 1007.1 |
| 20260504185041 | 71 | 265 | 3.5 | 7.0 | 0.00 | 0.00 | 0.00 | 32 | 1007.1 |
| 20260504184551 | 71 | 271 | 2.6 | 9.6 | 0.00 | 0.00 | 0.00 | 32 | 1007.4 |
| 20260504184045 | 71 | 223 | 2.6 | 12.2 | 0.00 | 0.00 | 0.00 | 31 | 1007.2 |
| 20260504183542 | 71 | 263 | 5.2 | 12.2 | 0.00 | 0.00 | 0.00 | 31 | 1007.2 |
| 20260504183054 | 71 | 226 | 6.1 | 11.3 | 0.00 | 0.00 | 0.00 | 29 | 1007.1 |
| 20260504182543 | 72 | 250 | 2.6 | 11.3 | 0.00 | 0.00 | 0.00 | 30 | 1007.3 |
| 20260504182044 | 71 | 292 | 4.3 | 11.3 | 0.00 | 0.00 | 0.00 | 31 | 1007.2 |
| 20260504181553 | 72 | 250 | 3.5 | 9.6 | 0.00 | 0.00 | 0.00 | 31 | 1007.1 |
| 20260504181042 | 72 | 241 | 4.3 | 8.7 | 0.00 | 0.00 | 0.00 | 31 | 1007.3 |
| 20260504180544 | 72 | 232 | 2.6 | 9.6 | 0.00 | 0.00 | 0.00 | 31 | 1007.3 |
| 20260504180050 | 71 | 276 | 5.2 | 9.6 | 0.00 | 0.00 | 0.00 | 32 | 1007.3 |
| 20260504175543 | 71 | 245 | 4.3 | 10.4 | 0.00 | 0.00 | 0.00 | 33 | 1007.2 |
| 20260504175041 | 71 | 254 | 4.3 | 10.4 | 0.00 | 0.00 | 0.00 | 33 | 1007.6 |
| 20260504174555 | 71 | 244 | 3.5 | 10.4 | 0.00 | 0.00 | 0.00 | 32 | 1007.5 |
| 20260504174043 | 71 | 250 | 5.2 | 10.4 | 0.00 | 0.00 | 0.00 | 33 | 1007.4 |
| 20260504173543 | 71 | 244 | 4.3 | 9.6 | 0.00 | 0.00 | 0.00 | 34 | 1007.5 |
| 20260504173049 | 71 | 275 | 2.6 | 10.4 | 0.00 | 0.00 | 0.00 | 34 | 1007.4 |
| 20260504172542 | 70 | 235 | 4.3 | 10.4 | 0.00 | 0.00 | 0.00 | 32 | 1007.5 |
| 20260504172042 | 70 | 240 | 4.3 | 10.4 | 0.00 | 0.00 | 0.00 | 32 | 1007.6 |
| 20260504171551 | 70 | 255 | 6.1 | 13.0 | 0.00 | 0.00 | 0.00 | 32 | 1007.5 |
| 20260504171043 | 70 | 257 | 7.0 | 13.0 | 0.00 | 0.00 | 0.00 | 31 | 1007.6 |
| 20260504170543 | 71 | 236 | 2.6 | 11.3 | 0.00 | 0.00 | 0.00 | 34 | 1007.6 |
| 20260504151041 | 65 | 265 | 3.5 | 9.6 | 0.00 | 0.00 | 0.00 | 40 | 1008.7 |
| 20260504150541 | 64 | 246 | 3.5 | 11.3 | 0.00 | 0.00 | 0.00 | 40 | 1008.7 |
| 20260504141042 | 62 | 273 | 2.6 | 7.8 | 0.00 | 0.00 | 0.00 | 44 | 1009.4 |
| 20260504140542 | 62 | 271 | 1.7 | 7.0 | 0.00 | 0.00 | 0.00 | 43 | 1009.4 |
| 20260504130539 | 57 | 234 | 1.7 | 7.8 | 0.00 | 0.00 | 0.00 | 51 | 1009.8 |
| 20260504110544 | 47 | 257 | 0.0 | 1.7 | 0.00 | 0.00 | 0.00 | 66 | 1010.7 |
| 20260504100543 | 43 | 254 | 1.7 | 3.5 | 0.00 | 0.00 | 0.00 | 68 | 1010.7 |
| 20260504081559 | 41 | 0 | 0.0 | 0.0 | 0.00 | 0.00 | 0.00 | 69 | 1010.3 |
| 20260504081041 | 41 | 0 | 0.0 | 0.0 | 0.00 | 0.00 | 0.00 | 68 | 1010.3 |
| 20260504080541 | 41 | 0 | 0.0 | 0.0 | 0.00 | 0.00 | 0.00 | 68 | 1010.2 |
| 20260504050539 | 38 | 0 | 0.0 | 0.0 | 0.00 | 0.00 | 0.00 | 70 | 1010.6 |
| 20260504050108 | 38 | 0 | 0.0 | 0.0 | 0.00 | 0.00 | 0.00 | 70 | 1010.6 |
| 20260504045544 | 38 | 0 | 0.0 | 0.0 | 0.00 | 0.00 | 0.00 | 70 | 1010.6 |
| 20260504045044 | 38 | 0 | 0.0 | 0.0 | 0.00 | 0.00 | 0.00 | 71 | 1010.6 |
| 20260504044551 | 37 | 0 | 0.0 | 0.0 | 0.00 | 0.00 | 0.00 | 72 | 1010.6 |
| 20260504044041 | 37 | 0 | 0.0 | 0.0 | 0.00 | 0.00 | 0.00 | 72 | 1010.6 |
| 20260504043542 | 37 | 0 | 0.0 | 0.0 | 0.00 | 0.00 | 0.00 | 73 | 1010.6 |
| 20260504043101 | 37 | 0 | 0.0 | 0.0 | 0.00 | 0.00 | 0.00 | 73 | 1010.6 |
| 20260504042542 | 37 | 0 | 0.0 | 0.0 | 0.00 | 0.00 | 0.00 | 72 | 1010.4 |
| 20260504042043 | 37 | 0 | 0.0 | 0.0 | 0.00 | 0.00 | 0.00 | 73 | 1010.5 |
| 20260504041549 | 37 | 0 | 0.0 | 0.0 | 0.00 | 0.00 | 0.00 | 72 | 1010.6 |
| 20260504041042 | 37 | 0 | 0.0 | 0.0 | 0.00 | 0.00 | 0.00 | 73 | 1010.5 |
| 20260504040541 | 37 | 0 | 0.0 | 0.0 | 0.00 | 0.00 | 0.00 | 73 | 1010.5 |
| 20260504040055 | 37 | 0 | 0.0 | 0.0 | 0.00 | 0.00 | 0.00 | 73 | 1010.4 |
| 20260504035542 | 37 | 0 | 0.0 | 0.0 | 0.00 | 0.00 | 0.00 | 72 | 1010.4 |
| 20260504035043 | 37 | 0 | 0.0 | 0.0 | 0.00 | 0.00 | 0.00 | 72 | 1010.4 |
| 20260504034549 | 38 | 0 | 0.0 | 0.0 | 0.00 | 0.00 | 0.00 | 71 | 1010.4 |
| 20260504034042 | 37 | 0 | 0.0 | 0.0 | 0.00 | 0.00 | 0.00 | 72 | 1010.3 |
| 20260504033544 | 37 | 0 | 0.0 | 0.0 | 0.00 | 0.00 | 0.00 | 73 | 1010.3 |
| 20260504033056 | 36 | 0 | 0.0 | 0.0 | 0.00 | 0.00 | 0.00 | 74 | 1010.4 |
| 20260504032543 | 36 | 0 | 0.0 | 0.0 | 0.00 | 0.00 | 0.00 | 75 | 1010.3 |
| 20260504032047 | 36 | 0 | 0.0 | 0.0 | 0.00 | 0.00 | 0.00 | 76 | 1010.3 |
| 20260504031557 | 36 | 0 | 0.0 | 0.0 | 0.00 | 0.00 | 0.00 | 76 | 1010.3 |
| 20260504031042 | 36 | 0 | 0.0 | 0.0 | 0.00 | 0.00 | 0.00 | 75 | 1010.3 |
| 20260504030541 | 36 | 0 | 0.0 | 0.0 | 0.00 | 0.00 | 0.00 | 75 | 1010.3 |
| 20260504030048 | 37 | 0 | 0.0 | 0.0 | 0.00 | 0.00 | 0.00 | 76 | 1010.4 |
| 20260504025542 | 36 | 0 | 0.0 | 0.0 | 0.00 | 0.00 | 0.00 | 75 | 1010.4 |
| 20260504025043 | 36 | 0 | 0.0 | 0.0 | 0.00 | 0.00 | 0.00 | 75 | 1010.3 |
| 20260504024545 | 37 | 0 | 0.0 | 0.0 | 0.00 | 0.00 | 0.00 | 75 | 1010.3 |
| 20260504024043 | 37 | 0 | 0.0 | 0.0 | 0.00 | 0.00 | 0.00 | 74 | 1010.3 |
| 20260504023543 | 37 | 0 | 0.0 | 0.0 | 0.00 | 0.00 | 0.00 | 73 | 1010.2 |
| 20260504023045 | 37 | 0 | 0.0 | 0.0 | 0.00 | 0.00 | 0.00 | 73 | 1010.2 |
| 20260504022543 | 37 | 0 | 0.0 | 0.0 | 0.00 | 0.00 | 0.00 | 72 | 1010.3 |
| 20260504022043 | 38 | 0 | 0.0 | 0.0 | 0.00 | 0.00 | 0.00 | 72 | 1010.2 |
| 20260504021547 | 38 | 0 | 0.0 | 0.0 | 0.00 | 0.00 | 0.00 | 72 | 1010.2 |
| 20260504021042 | 38 | 0 | 0.0 | 0.0 | 0.00 | 0.00 | 0.00 | 72 | 1010.1 |
| 20260504020622 | 38 | 0 | 0.0 | 0.0 | 0.00 | 0.00 | 0.00 | 72 | 1010.1 |
| 20260504020048 | 39 | 0 | 0.0 | 0.0 | 0.00 | 0.00 | 0.00 | 71 | 1010.1 |
| 20260504015543 | 39 | 0 | 0.0 | 0.0 | 0.00 | 0.00 | 0.00 | 70 | 1010.0 |
| 20260504015043 | 39 | 0 | 0.0 | 0.0 | 0.00 | 0.00 | 0.00 | 70 | 1010.0 |
| 20260504014556 | 39 | 0 | 0.0 | 0.0 | 0.00 | 0.00 | 0.00 | 69 | 1010.0 |
| 20260504014044 | 40 | 0 | 0.0 | 0.0 | 0.00 | 0.00 | 0.00 | 68 | 1009.9 |
| 20260504013542 | 41 | 0 | 0.0 | 0.0 | 0.00 | 0.00 | 0.00 | 66 | 1009.8 |
| 20260504013047 | 41 | 0 | 0.0 | 0.0 | 0.00 | 0.00 | 0.00 | 65 | 1009.8 |
| 20260504012545 | 42 | 0 | 0.0 | 0.0 | 0.00 | 0.00 | 0.00 | 63 | 1009.8 |
| 20260504012043 | 42 | 0 | 0.0 | 0.0 | 0.00 | 0.00 | 0.00 | 62 | 1009.7 |
| 20260504011547 | 42 | 0 | 0.0 | 0.0 | 0.00 | 0.00 | 0.00 | 62 | 1009.7 |
| 20260504011042 | 42 | 0 | 0.0 | 0.0 | 0.00 | 0.00 | 0.00 | 62 | 1009.7 |
| 20260504010542 | 43 | 0 | 0.0 | 0.0 | 0.00 | 0.00 | 0.00 | 61 | 1009.6 |
| 20260504010110 | 43 | 0 | 0.0 | 0.0 | 0.00 | 0.00 | 0.00 | 59 | 1009.5 |
| 20260504005543 | 43 | 0 | 0.0 | 0.0 | 0.00 | 0.00 | 0.00 | 59 | 1009.4 |
| 20260504005043 | 44 | 0 | 0.0 | 0.0 | 0.00 | 0.00 | 0.00 | 58 | 1009.3 |
| 20260504004546 | 44 | 0 | 0.0 | 0.0 | 0.00 | 0.00 | 0.00 | 57 | 1009.1 |
| 20260504004046 | 44 | 0 | 0.0 | 0.0 | 0.00 | 0.00 | 0.00 | 56 | 1009.1 |
| 20260504003542 | 44 | 0 | 0.0 | 0.0 | 0.00 | 0.00 | 0.00 | 56 | 1009.1 |
| 20260504003048 | 45 | 0 | 0.0 | 0.0 | 0.00 | 0.00 | 0.00 | 55 | 1009.1 |
| 20260504002542 | 45 | 0 | 0.0 | 0.0 | 0.00 | 0.00 | 0.00 | 55 | 1009.1 |
| 20260504002042 | 45 | 0 | 0.0 | 0.0 | 0.00 | 0.00 | 0.00 | 55 | 1009.0 |
| 20260504001600 | 45 | 0 | 0.0 | 0.0 | 0.00 | 0.00 | 0.00 | 54 | 1009.1 |
| 20260504001042 | 46 | 0 | 0.0 | 0.9 | 0.00 | 0.00 | 0.00 | 54 | 1008.9 |
| 20260504000542 | 46 | 0 | 0.0 | 2.6 | 0.00 | 0.00 | 0.00 | 53 | 1008.9 |
| 20260504000052 | 46 | 0 | 0.0 | 2.6 | 0.00 | 0.00 | 0.00 | 53 | 1008.8 |
| 20260503235547 | 46 | 0 | 0.0 | 2.6 | 0.00 | 0.00 | 0.00 | 53 | 1008.9 |
| 20260503235043 | 47 | 0 | 0.0 | 3.5 | 0.00 | 0.00 | 0.00 | 53 | 1008.8 |
| 20260503234541 | 47 | 0 | 0.9 | 3.5 | 0.00 | 0.00 | 0.00 | 53 | 1008.8 |
| 20260503234041 | 47 | 0 | 0.0 | 2.6 | 0.00 | 0.00 | 0.00 | 52 | 1008.8 |
| 20260503233543 | 47 | 0 | 0.9 | 6.1 | 0.00 | 0.00 | 0.00 | 52 | 1008.7 |
| 20260503233059 | 47 | 167 | 0.9 | 6.1 | 0.00 | 0.00 | 0.00 | 51 | 1008.6 |
| 20260503232542 | 48 | 324 | 0.0 | 4.3 | 0.00 | 0.00 | 0.00 | 52 | 1008.6 |
| 20260503232041 | 48 | 211 | 0.9 | 4.3 | 0.00 | 0.00 | 0.00 | 51 | 1008.5 |
| 20260503231554 | 48 | 88 | 0.0 | 3.5 | 0.00 | 0.00 | 0.00 | 51 | 1008.4 |
| 20260503231043 | 48 | 184 | 0.0 | 3.5 | 0.00 | 0.00 | 0.00 | 51 | 1008.3 |
| 20260503230543 | 48 | 53 | 0.9 | 8.7 | 0.00 | 0.00 | 0.00 | 50 | 1008.4 |
| 20260503230054 | 49 | 279 | 0.9 | 9.6 | 0.00 | 0.00 | 0.00 | 49 | 1008.3 |
| 20260503225541 | 49 | 15 | 1.7 | 9.6 | 0.00 | 0.01 | 0.00 | 51 | 1008.2 |
| 20260503225043 | 49 | 292 | 0.9 | 9.6 | 0.00 | 0.01 | 0.00 | 51 | 1008.2 |